^^
Datos históricos de la estación: Murcia-Puente Tocinos
Diario Informe para Abril 14, 2019 Unidades:  Métrico    Ingés   Ambas
Diario Semanal Mensual Anual
  Máxima: Mínima: Promedio:
Temperatura: 29.6 °C 19.4 °C 24.4 °C
Punto de rocio: 17.6 °C 11.2 °C 14.3 °C
Humedad: 86% 35% 55%
Velocidad viento: 20.1km/h 0km/h 9.6km/h
Racha viento: 35.9km/h - -
Viento- - Sur
Presión: 1011.6 hPa 1007.3 hPa -
Precipitación: 1.5 mm    
 
 
Tabla de datos para Abril 14, 2019
Hora Temperatura Punto de rocio Presión Viento Velocidad viento Racha viento Humedad Intensidad lluvia(por hora) Nubes
00:04 20.9 °C 14.1 °C 1009.1 hPa Calm   5.8 km/h 65% 0.0 mm
00:09 20.9 °C 14 °C 1009.1 hPa OSO 0.7 km/h 6.4 km/h 64.8% 0.0 mm
00:14 20.9 °C 13.8 °C 1009.1 hPa OSO 2.2 km/h 6.4 km/h 64% 0.0 mm
00:19 20.9 °C 13.8 °C 1009.1 hPa OSO 1.5 km/h 6.4 km/h 64% 0.0 mm
00:24 21 °C 13.9 °C 1008.8 hPa Calm   8 km/h 63.9% 0.0 mm
00:29 21 °C 13.8 °C 1008.8 hPa Oeste 1.3 km/h 8.4 km/h 63.3% 0.0 mm
00:34 21.1 °C 13.9 °C 1008.8 hPa Oeste 3.9 km/h 8 km/h 63.4% 0.0 mm
00:39 21.1 °C 13.8 °C 1008.8 hPa Oeste 3.9 km/h 14.8 km/h 63% 0.0 mm
00:44 21.1 °C 13.6 °C 1008.8 hPa OSO 3.9 km/h 14.8 km/h 62.1% 0.0 mm
00:49 21.1 °C 13.5 °C 1008.8 hPa OSO 5.1 km/h 14.5 km/h 62% 0.0 mm
00:54 21.1 °C 13.6 °C 1008.7 hPa SO 7.6 km/h 14.5 km/h 62% 0.0 mm
00:59 21.1 °C 13.6 °C 1008.7 hPa SO 7.9 km/h 15.6 km/h 62% 0.0 mm
01:04 21.1 °C 13.6 °C 1008.7 hPa SO 8.4 km/h 16.1 km/h 62% 0.0 mm
01:09 21.1 °C 13.6 °C 1008.7 hPa SO 8.5 km/h 16.1 km/h 62% 0.0 mm
01:14 21.1 °C 13.3 °C 1008.7 hPa SO 8.7 km/h 17.2 km/h 61.1% 0.0 mm
01:19 21.1 °C 13.1 °C 1008.7 hPa SO 9.2 km/h 18.5 km/h 60.1% 0.0 mm
01:24 21.1 °C 13.1 °C 1008.5 hPa SO 10.3 km/h 19.3 km/h 60% 0.0 mm
01:29 21.1 °C 13 °C 1008.5 hPa SO 10.3 km/h 19.3 km/h 60% 0.0 mm
01:34 21 °C 12.9 °C 1008.5 hPa SO 10.3 km/h 22.2 km/h 60% 0.0 mm
01:39 20.9 °C 12.8 °C 1008.4 hPa SO 10.3 km/h 22.5 km/h 60% 0.0 mm
01:44 20.9 °C 12.8 °C 1008.4 hPa SO 10.3 km/h 20.4 km/h 60% 0.0 mm
01:49 20.9 °C 12.7 °C 1008.4 hPa SO 10.3 km/h 22.5 km/h 59.5% 0.0 mm
01:54 21 °C 12.7 °C 1008.3 hPa SO 10.3 km/h 22.5 km/h 59% 0.0 mm
01:59 21.1 °C 12.8 °C 1008.3 hPa OSO 10.6 km/h 20.9 km/h 59% 0.0 mm
02:04 21.1 °C 12.8 °C 1008.3 hPa SO 11.1 km/h 20.4 km/h 59% 0.0 mm
02:09 21.1 °C 12.8 °C 1008.1 hPa SO 10.8 km/h 20.9 km/h 58.9% 0.0 mm
02:14 21.1 °C 12.6 °C 1008.1 hPa SSO 10 km/h 16.7 km/h 58.2% 0.0 mm
02:19 21.1 °C 12.5 °C 1008.3 hPa SSO 10.6 km/h 19 km/h 58% 0.0 mm
02:24 21.1 °C 12.5 °C 1008.3 hPa SSO 11.9 km/h 19.3 km/h 58% 0.0 mm
02:29 21.2 °C 12.6 °C 1008.3 hPa SSO 11.6 km/h 22.2 km/h 58% 0.0 mm
02:34 21.3 °C 12.7 °C 1008.4 hPa SSO 11.1 km/h 22.5 km/h 58% 0.0 mm
02:39 21.3 °C 12.7 °C 1008.4 hPa SSO 11.9 km/h 27.8 km/h 58% 0.0 mm
02:44 21.4 °C 12.8 °C 1008.4 hPa SSO 13.7 km/h 27.4 km/h 58% 0.0 mm
02:49 21.5 °C 12.9 °C 1008.4 hPa SO 13.7 km/h 25.9 km/h 58% 0.0 mm
02:54 21.6 °C 13 °C 1008.4 hPa OSO 13.7 km/h 29.6 km/h 58% 0.0 mm
02:59 21.6 °C 13 °C 1008.4 hPa OSO 14.7 km/h 35.9 km/h 58% 0.0 mm
03:04 21.6 °C 13.3 °C 1008.4 hPa OSO 16.4 km/h 35.4 km/h 59.4% 0.0 mm
03:09 21.6 °C 13.9 °C 1007.6 hPa SO 16.3 km/h 33.8 km/h 61.6% 0.0 mm
03:14 21.6 °C 14.3 °C 1007.6 hPa SO 16.1 km/h 25.7 km/h 62.9% 0.0 mm
03:19 21.6 °C 14.5 °C 1008.0 hPa SSO 14.7 km/h 20.9 km/h 63.9% 0.0 mm
03:24 21.6 °C 14.7 °C 1008.0 hPa Sur 11.9 km/h 22.2 km/h 64.9% 0.0 mm
03:29 21.6 °C 14.9 °C 1008.0 hPa Sur 11.6 km/h 22.5 km/h 65.8% 0.0 mm
03:34 21.5 °C 14.9 °C 1008.0 hPa SSO 11.1 km/h 19 km/h 66% 0.0 mm
03:39 21.5 °C 14.9 °C 1007.8 hPa SO 11.4 km/h 22.5 km/h 66% 0.0 mm
03:44 21.4 °C 14.8 °C 1007.8 hPa SSO 11.9 km/h 22.5 km/h 66% 0.0 mm
03:49 21.4 °C 14.8 °C 1007.8 hPa SSO 12.6 km/h 22.5 km/h 66.3% 0.0 mm
03:54 21.3 °C 14.9 °C 1007.3 hPa Sur 14 km/h 20.9 km/h 67% 0.0 mm
03:59 21.2 °C 14.9 °C 1007.3 hPa Sur 13.7 km/h 20.9 km/h 67.5% 0.0 mm
04:04 21.2 °C 14.8 °C 1007.7 hPa Sur 13 km/h 20.9 km/h 67% 0.0 mm
04:09 21.2 °C 14.8 °C 1007.7 hPa SSO 12.1 km/h 19.3 km/h 67% 0.0 mm
04:14 21.2 °C 14.8 °C 1007.7 hPa SSE 10.3 km/h 19.3 km/h 67% 0.0 mm
04:19 21.2 °C 14.9 °C 1007.7 hPa SSO 9.7 km/h 13 km/h 67.6% 0.0 mm
04:24 21.1 °C 15.1 °C 1007.3 hPa SO 8.4 km/h 13 km/h 68.5% 0.0 mm
04:29 21 °C 15.1 °C 1007.3 hPa SO 8.4 km/h 13.7 km/h 69% 0.0 mm
04:34 21 °C 15.1 °C 1007.4 hPa SSO 8.4 km/h 16.1 km/h 68.9% 0.0 mm
04:39 21.1 °C 15.1 °C 1007.4 hPa SSO 8.4 km/h 16.7 km/h 68.9% 0.0 mm
04:44 21.1 °C 15.2 °C 1007.4 hPa SSE 8.4 km/h 16.1 km/h 69% 0.0 mm
04:49 21.1 °C 15.2 °C 1007.5 hPa SE 7.9 km/h 14.5 km/h 69% 0.0 mm
04:54 21.1 °C 15.2 °C 1007.5 hPa SO 6.9 km/h 11.1 km/h 69% 0.0 mm
04:59 21.1 °C 15.2 °C 1007.5 hPa SSO 6.9 km/h 13 km/h 69% 0.0 mm
05:04 21.1 °C 15.1 °C 1007.8 hPa Sur 6.9 km/h 16.1 km/h 69% 0.0 mm
05:09 21.1 °C 15.2 °C 1007.8 hPa Sur 7.8 km/h 16.7 km/h 69% 0.0 mm
05:14 21.1 °C 15.2 °C 1007.8 hPa Sur 9.5 km/h 14.8 km/h 69.1% 0.0 mm
05:19 21.1 °C 15.4 °C 1007.9 hPa SSO 9.5 km/h 16.1 km/h 70% 0.0 mm
05:24 21 °C 15.3 °C 1007.9 hPa SSO 9.5 km/h 14.5 km/h 70% 0.0 mm
05:29 21.1 °C 15.4 °C 1007.9 hPa OSO 9 km/h 11.3 km/h 70% 0.0 mm
05:34 21.1 °C 15.3 °C 1007.9 hPa SSO 7.6 km/h 13 km/h 69.8% 0.0 mm
05:39 21.2 °C 15.3 °C 1007.9 hPa Sur 7.6 km/h 13.7 km/h 69% 0.0 mm
05:44 21.2 °C 15.2 °C 1007.9 hPa Sur 7.6 km/h 14.8 km/h 68.6% 0.0 mm
05:49 21.3 °C 15.2 °C 1008.1 hPa Sur 7.8 km/h 14.5 km/h 68% 0.0 mm
05:54 21.3 °C 15.1 °C 1008.1 hPa Sur 8.4 km/h 11.3 km/h 67.9% 0.0 mm
05:59 21.2 °C 15 °C 1008.1 hPa Sur 7.7 km/h 10 km/h 67.9% 0.0 mm
06:04 21.2 °C 14.9 °C 1008.4 hPa SSO 6.5 km/h 9.7 km/h 67.4% 0.0 mm
06:09 21.2 °C 14.8 °C 1008.4 hPa Sur 5.9 km/h 11.1 km/h 67% 0.0 mm
06:14 21.2 °C 15 °C 1008.4 hPa SO 4.7 km/h 11.3 km/h 67.9% 0.0 mm
06:19 21.2 °C 15.1 °C 1008.6 hPa OSO 5.3 km/h 13 km/h 68% 0.0 mm
06:24 21.2 °C 15.1 °C 1008.6 hPa SO 6.5 km/h 12.9 km/h 68% 0.0 mm
06:29 21.2 °C 14.9 °C 1008.6 hPa SSO 5.6 km/h 8 km/h 67.5% 0.0 mm
06:34 21.2 °C 14.8 °C 1008.7 hPa SSO 3.9 km/h 9.7 km/h 67% 0.0 mm
06:39 21.2 °C 14.8 °C 1008.7 hPa SSO 4.2 km/h 9.7 km/h 67% 0.0 mm
06:44 21.2 °C 14.9 °C 1008.7 hPa SO 5 km/h 8 km/h 67.3% 0.0 mm
06:49 21.3 °C 15.1 °C 1009.0 hPa OSO 4.6 km/h 8 km/h 67.5% 0.0 mm
06:54 21.3 °C 14.9 °C 1009.0 hPa OSO 3.9 km/h 9.3 km/h 67% 0.0 mm
06:59 21.3 °C 14.9 °C 1009.0 hPa SO 4.1 km/h 9.7 km/h 67% 0.0 mm
07:04 21.3 °C 14.9 °C 1009.1 hPa OSO 4.6 km/h 8.4 km/h 67% 0.0 mm
07:09 21.3 °C 15 °C 1009.1 hPa OSO 4.7 km/h 9.5 km/h 67% 0.0 mm
07:14 21.4 °C 15 °C 1009.1 hPa OSO 4.7 km/h 13 km/h 67% 0.0 mm
07:19 21.4 °C 14.8 °C 1009.3 hPa SO 5.2 km/h 12.9 km/h 66% 0.0 mm
07:24 21.5 °C 14.8 °C 1009.3 hPa OSO 6.5 km/h 11.3 km/h 66% 0.0 mm
07:29 21.4 °C 14.8 °C 1009.3 hPa Oeste 6.3 km/h 11.3 km/h 66% 0.0 mm
07:34 21.5 °C 14.8 °C 1009.3 hPa Oeste 5.8 km/h 11.1 km/h 66% 0.0 mm
07:39 21.4 °C 14.8 °C 1009.2 hPa Oeste 5.8 km/h 13 km/h 66% 0.0 mm
07:44 21.4 °C 14.8 °C 1009.2 hPa OSO 5.8 km/h 16.7 km/h 66% 0.0 mm
07:49 21.4 °C 14.8 °C 1009.4 hPa OSO 7 km/h 22.2 km/h 66% 0.0 mm
07:54 21.5 °C 14.9 °C 1009.4 hPa OSO 9.5 km/h 22.5 km/h 66% 0.0 mm
07:59 21.4 °C 14.9 °C 1009.4 hPa OSO 10.1 km/h 16.7 km/h 66.4% 0.0 mm
08:04 21.4 °C 15 °C 1009.6 hPa SO 11.1 km/h 17.2 km/h 67% 0.0 mm
08:09 21.4 °C 15 °C 1009.6 hPa SO 10.2 km/h 17.7 km/h 67% 0.0 mm
08:14 21.4 °C 15 °C 1009.6 hPa OSO 8.4 km/h 16.1 km/h 67% 0.0 mm
08:19 21.3 °C 15.1 °C 1009.7 hPa Oeste 8.4 km/h 22.2 km/h 67.4% 0.0 mm
08:24 21.3 °C 15.2 °C 1009.7 hPa OSO 8.4 km/h 23.3 km/h 68.1% 0.0 mm
08:29 21.2 °C 15.3 °C 1009.7 hPa OSO 9.9 km/h 22.5 km/h 69% 0.0 mm
08:34 21.1 °C 15.5 °C 1010.0 hPa OSO 13 km/h 26.2 km/h 70.6% 0.0 mm
08:39 20.8 °C 15.9 °C 1010.0 hPa OSO 13 km/h 25.7 km/h 73.5% 0.0 mm
08:44 20.5 °C 16.3 °C 1010.0 hPa Oeste 13 km/h 19.3 km/h 76.5% 0.3 mm
08:49 20.2 °C 16.5 °C 1010.2 hPa Oeste 11.6 km/h 16.1 km/h 79.3% 0.5 mm
08:54 19.9 °C 16.6 °C 1010.2 hPa Oeste 8.7 km/h 13.7 km/h 81.6% 0.8 mm
08:59 19.7 °C 16.8 °C 1010.2 hPa Oeste 8.3 km/h 14.5 km/h 83.2% 1.0 mm
09:04 19.6 °C 16.8 °C 1010.5 hPa Oeste 7.6 km/h 11.9 km/h 84% 1.0 mm
09:09 19.5 °C 16.8 °C 1010.5 hPa Oeste 7.6 km/h 11.3 km/h 84.5% 1.0 mm
09:14 19.4 °C 16.8 °C 1010.5 hPa Oeste 7.6 km/h 11.3 km/h 84.9% 1.0 mm
09:19 19.4 °C 16.8 °C 1010.5 hPa Oeste 6.7 km/h 9.7 km/h 85% 1.0 mm
09:24 19.5 °C 16.9 °C 1010.5 hPa Oeste 5 km/h 10 km/h 85.2% 1.0 mm
09:29 19.5 °C 17.1 °C 1010.5 hPa Oeste 5.2 km/h 9.7 km/h 85.8% 1.0 mm
09:34 19.6 °C 17.2 °C 1010.8 hPa SO 5.8 km/h 13 km/h 86% 1.5 mm
09:39 19.6 °C 17.1 °C 1010.8 hPa SSO 6.2 km/h 15.6 km/h 85.8% 1.5 mm
09:44 19.7 °C 17.1 °C 1010.8 hPa SSO 6.9 km/h 16.1 km/h 85% 1.5 mm
09:49 19.8 °C 17.3 °C 1010.8 hPa Sur 7.8 km/h 16.1 km/h 85.3% 1.2 mm
09:54 19.8 °C 17.3 °C 1010.8 hPa SSO 9.5 km/h 14.5 km/h 85% 1.0 mm
09:59 19.9 °C 17.3 °C 1010.8 hPa SSO 9.1 km/h 12.9 km/h 85.2% 0.7 mm
10:04 20 °C 17.6 °C 1010.9 hPa SSO 8.4 km/h 11.3 km/h 85.9% 0.5 mm
10:09 20 °C 17.4 °C 1010.9 hPa SSO 8.1 km/h 11.3 km/h 84.7% 0.5 mm
10:14 20.1 °C 17.2 °C 1010.9 hPa SSO 7.6 km/h 13 km/h 83.3% 0.5 mm
10:19 20.2 °C 17.3 °C 1011.1 hPa SSO 7.4 km/h 12.9 km/h 83.4% 0.5 mm
10:24 20.4 °C 17.4 °C 1011.1 hPa SO 6.9 km/h 13.7 km/h 83% 0.5 mm
10:29 20.7 °C 17.5 °C 1011.1 hPa SO 6.9 km/h 15.6 km/h 82% 0.5 mm
10:34 20.8 °C 17.3 °C 1011.1 hPa SSO 6.9 km/h 16.1 km/h 80% 0.0 mm
10:39 21.1 °C 17.3 °C 1011.1 hPa SO 7.9 km/h 16.1 km/h 79% 0.0 mm
10:44 21.3 °C 17.4 °C 1011.1 hPa SO 10 km/h 16.1 km/h 78.7% 0.0 mm
10:49 21.6 °C 17.5 °C 1011.1 hPa Sur 9 km/h 11.9 km/h 77.5% 0.0 mm
10:54 21.8 °C 17.4 °C 1010.8 hPa OSO 6.9 km/h 13 km/h 75.8% 0.0 mm
10:59 22 °C 17.5 °C 1010.8 hPa SO 6.8 km/h 12.9 km/h 75.6% 0.0 mm
11:04 22.3 °C 17.4 °C 1010.9 hPa SSO 6.5 km/h 9.7 km/h 73.8% 0.0 mm
11:09 22.5 °C 17.3 °C 1010.9 hPa SSE 6 km/h 13.7 km/h 72.2% 0.0 mm
11:14 22.7 °C 17.3 °C 1010.9 hPa Sur 5 km/h 14.5 km/h 71.6% 0.0 mm
11:19 22.9 °C 17 °C 1010.9 hPa Sur 4.9 km/h 11.3 km/h 69.5% 0.0 mm
11:24 23.2 °C 17.1 °C 1010.9 hPa Sur 4.7 km/h 9.7 km/h 68.5% 0.0 mm
11:29 23.4 °C 16.6 °C 1010.9 hPa SO 4.7 km/h 11.1 km/h 65.9% 0.0 mm
11:34 23.5 °C 16.6 °C 1010.9 hPa Oeste 4.7 km/h 11.3 km/h 65.2% 0.0 mm
11:39 23.7 °C 16.6 °C 1010.9 hPa Oeste 5 km/h 15.6 km/h 64.5% 0.0 mm
11:44 23.6 °C 16.2 °C 1010.9 hPa Oeste 5.8 km/h 16.1 km/h 63.1% 0.0 mm
11:49 23.8 °C 16.5 °C 1011.0 hPa Oeste 6 km/h 11.3 km/h 64% 0.0 mm
11:54 24 °C 16.6 °C 1011.0 hPa NO 6.5 km/h 11.1 km/h 63.6% 0.0 mm
11:59 24.2 °C 15.9 °C 1011.0 hPa Oeste 6.2 km/h 14.8 km/h 60% 0.0 mm
12:04 24.2 °C 15.9 °C 1011.0 hPa Oeste 5.8 km/h 14.8 km/h 60% 0.0 mm
12:09 24.4 °C 16.1 °C 1010.9 hPa SO 5.8 km/h 14.5 km/h 59.8% 0.0 mm
12:14 24.7 °C 16.1 °C 1010.9 hPa SSE 5.8 km/h 9.7 km/h 58.7% 0.0 mm
12:19 25 °C 16.2 °C 1010.9 hPa SSE 5.5 km/h 13 km/h 58% 0.0 mm
12:24 25.2 °C 16.2 °C 1010.8 hPa SO 5 km/h 12.9 km/h 57.3% 0.0 mm
12:29 25.4 °C 16.1 °C 1010.8 hPa SSE 5.3 km/h 11.3 km/h 56.6% 0.0 mm
12:34 25.7 °C 15.7 °C 1010.8 hPa Este 5.8 km/h 10.3 km/h 53.9% 0.0 mm
12:39 26 °C 15.7 °C 1010.6 hPa Este 5.5 km/h 13 km/h 53.2% 0.0 mm
12:44 26.1 °C 15.2 °C 1010.6 hPa ESE 5 km/h 13 km/h 51.2% 0.0 mm
12:49 26.2 °C 15.1 °C 1010.6 hPa ESE 5.3 km/h 12.9 km/h 50.4% 0.0 mm
12:54 26.4 °C 14.2 °C 1010.5 hPa SSO 5.8 km/h 11.9 km/h 47.1% 0.0 mm
12:59 26.6 °C 13.4 °C 1010.5 hPa Oeste 5.4 km/h 11.3 km/h 44.1% 0.0 mm
13:04 26.8 °C 12.3 °C 1010.5 hPa SO 4.7 km/h 16.1 km/h 40.5% 0.0 mm
13:09 26.9 °C 12.2 °C 1010.5 hPa SO 6.2 km/h 17.2 km/h 40.1% 0.0 mm
13:14 26.9 °C 12.1 °C 1010.5 hPa SO 9.5 km/h 17.7 km/h 39.8% 0.0 mm
13:19 27 °C 12 °C 1010.5 hPa Sur 8.5 km/h 14.5 km/h 39.5% 0.0 mm
13:24 27.3 °C 12.2 °C 1010.4 hPa NE 6.5 km/h 8 km/h 39.2% 0.0 mm
13:29 27.7 °C 12.2 °C 1010.4 hPa SSE 5.4 km/h 10 km/h 38.3% 0.0 mm
13:34 28 °C 12 °C 1010.4 hPa ONO 3.2 km/h 13.7 km/h 37.1% 0.0 mm
13:39 28.1 °C 11.2 °C 1010.2 hPa Oeste 4.3 km/h 14.8 km/h 35% 0.0 mm
13:44 28.1 °C 11.2 °C 1010.2 hPa OSO 6.5 km/h 14.5 km/h 35.1% 0.0 mm
13:49 28.2 °C 11.5 °C 1010.2 hPa SE 6.6 km/h 15.6 km/h 35.5% 0.0 mm
13:54 28.3 °C 13.1 °C 1010.1 hPa ENE 6.9 km/h 16.1 km/h 39.2% 0.0 mm
13:59 28.5 °C 13 °C 1010.1 hPa Este 6.5 km/h 14.5 km/h 38.7% 0.0 mm
14:04 28.6 °C 13.7 °C 1010.1 hPa ESE 5.8 km/h 14.8 km/h 40.2% 0.0 mm
14:09 28.5 °C 15 °C 1010.0 hPa ENE 6.2 km/h 14.5 km/h 44% 0.0 mm
14:14 28.4 °C 15.3 °C 1010.0 hPa NNE 6.9 km/h 16.7 km/h 44.9% 0.0 mm
14:19 28.5 °C 15.6 °C 1010.0 hPa SSE 7.5 km/h 16.7 km/h 45.6% 0.0 mm
14:24 28.6 °C 16.2 °C 1009.9 hPa SSE 8.7 km/h 20.4 km/h 47.2% 0.0 mm
14:29 28.5 °C 16.5 °C 1009.9 hPa SE 9.5 km/h 20.9 km/h 48% 0.0 mm
14:34 28.4 °C 16.4 °C 1009.9 hPa ESE 11.1 km/h 22.2 km/h 48.2% 0.0 mm
14:39 28.4 °C 16.3 °C 1009.8 hPa Este 11.4 km/h 22.5 km/h 47.8% 0.0 mm
14:44 28.5 °C 16.4 °C 1009.8 hPa ESE 11.9 km/h 22.5 km/h 47.9% 0.0 mm
14:49 28.5 °C 16.4 °C 1009.8 hPa SE 12.3 km/h 22.5 km/h 47.9% 0.0 mm
14:54 28.6 °C 16.1 °C 1009.6 hPa ESE 13 km/h 20.9 km/h 46.6% 0.0 mm
14:59 28.7 °C 15.3 °C 1009.6 hPa SE 13.3 km/h 25.9 km/h 44.3% 0.0 mm
15:04 28.9 °C 15 °C 1009.6 hPa SE 13.7 km/h 29.6 km/h 42.7% 0.0 mm
15:09 29.1 °C 14.8 °C 1009.4 hPa SE 14.4 km/h 29 km/h 41.8% 0.0 mm
15:14 29.1 °C 14.9 °C 1009.4 hPa SE 16.1 km/h 27.4 km/h 42% 0.0 mm
15:19 29.1 °C 15.5 °C 1009.4 hPa ESE 14.7 km/h 27.4 km/h 43.7% 0.0 mm
15:24 29.2 °C 15.5 °C 1009.4 hPa SE 11.9 km/h 35.9 km/h 43.6% 0.0 mm
15:29 29.5 °C 15.4 °C 1009.4 hPa SSE 12.6 km/h 35.4 km/h 42.6% 0.0 mm
15:34 29.6 °C 15.3 °C 1009.4 hPa SSE 14 km/h 24.5 km/h 42% 0.0 mm
15:39 29.3 °C 14.9 °C 1009.2 hPa Sur 14.8 km/h 31.5 km/h 41.7% 0.0 mm
15:44 29 °C 14.8 °C 1009.2 hPa SSE 16.4 km/h 32.2 km/h 42% 0.0 mm
15:49 29.1 °C 14.6 °C 1009.2 hPa SSE 16.4 km/h 27.8 km/h 41.2% 0.0 mm
15:54 29.2 °C 14.6 °C 1009.2 hPa SE 16.4 km/h 27.4 km/h 41% 0.0 mm
15:59 29.4 °C 14.5 °C 1009.2 hPa ESE 15.5 km/h 27.8 km/h 40.3% 0.0 mm
16:04 29.4 °C 14.3 °C 1009.3 hPa SE 14 km/h 29.8 km/h 39.8% 0.0 mm
16:09 29.3 °C 14.2 °C 1009.3 hPa SE 14.7 km/h 30.6 km/h 39.6% 0.0 mm
16:14 29.3 °C 14.2 °C 1009.3 hPa ESE 16.1 km/h 28.2 km/h 39.7% 0.0 mm
16:19 29.4 °C 14.3 °C 1009.3 hPa ESE 16.5 km/h 27.8 km/h 40% 0.0 mm
16:24 29.5 °C 14.2 °C 1009.2 hPa SE 17.2 km/h 33.3 km/h 39.3% 0.0 mm
16:29 29.3 °C 14 °C 1009.2 hPa SE 17.2 km/h 33.8 km/h 39% 0.0 mm
16:34 29.2 °C 14.1 °C 1009.2 hPa SE 17.2 km/h 30.6 km/h 39.8% 0.0 mm
16:39 29.3 °C 13.9 °C 1009.1 hPa SE 17.6 km/h 27.8 km/h 39% 0.0 mm
16:44 29.3 °C 13.8 °C 1009.1 hPa SE 18.4 km/h 27.8 km/h 38.7% 0.0 mm
16:49 29.3 °C 13.5 °C 1009.1 hPa SE 18 km/h 30.6 km/h 38% 0.0 mm
16:54 29.3 °C 13.5 °C 1009.0 hPa SE 17.2 km/h 30.6 km/h 38% 0.0 mm
16:59 29.3 °C 13.5 °C 1009.0 hPa SE 17.6 km/h 30.6 km/h 38% 0.0 mm
17:04 29.3 °C 13.5 °C 1009.0 hPa SE 18.4 km/h 28.2 km/h 38% 0.0 mm
17:09 29.2 °C 13.1 °C 1009.0 hPa SE 18.3 km/h 29.6 km/h 37.2% 0.0 mm
17:14 29.3 °C 13.3 °C 1009.0 hPa SE 18 km/h 29 km/h 37.3% 0.0 mm
17:19 29.4 °C 13 °C 1009.0 hPa SE 16.7 km/h 25.9 km/h 36.7% 0.0 mm
17:24 29.4 °C 13.2 °C 1008.9 hPa ESE 14 km/h 24.5 km/h 37% 0.0 mm
17:29 29.5 °C 13.3 °C 1008.9 hPa SE 13.9 km/h 25.1 km/h 37% 0.0 mm
17:34 29.5 °C 13.3 °C 1008.9 hPa ESE 13.7 km/h 27.8 km/h 37% 0.0 mm
17:39 29.4 °C 13.4 °C 1008.9 hPa SE 14.3 km/h 27.4 km/h 37.4% 0.0 mm
17:44 29.5 °C 13.3 °C 1008.9 hPa SE 15.6 km/h 24.1 km/h 37.2% 0.0 mm
17:49 29.3 °C 13.4 °C 1008.9 hPa SE 15.6 km/h 24.5 km/h 37.7% 0.0 mm
17:54 29.4 °C 13.6 °C 1008.8 hPa ESE 15.6 km/h 24.5 km/h 38% 0.0 mm
17:59 29.6 °C 13.7 °C 1008.8 hPa ESE 15.3 km/h 32.3 km/h 38% 0.0 mm
18:04 29.3 °C 13.5 °C 1008.8 hPa ESE 14.8 km/h 35.9 km/h 38% 0.0 mm
18:09 29.1 °C 13.4 °C 1008.8 hPa ESE 16.6 km/h 35.4 km/h 38.2% 0.0 mm
18:14 29.1 °C 13.4 °C 1008.8 hPa ESE 20.1 km/h 31.5 km/h 38.1% 0.0 mm
18:19 28.8 °C 13.1 °C 1008.8 hPa ESE 20 km/h 32.2 km/h 38% 0.0 mm
18:24 28.8 °C 13.1 °C 1008.8 hPa ESE 19.8 km/h 29.8 km/h 38.1% 0.0 mm
18:29 28.8 °C 13 °C 1008.8 hPa ESE 18.9 km/h 30.6 km/h 37.9% 0.0 mm
18:34 28.9 °C 13 °C 1008.8 hPa SE 17.2 km/h 28.6 km/h 37.6% 0.0 mm
18:39 29 °C 12.7 °C 1008.7 hPa SE 16.7 km/h 29.6 km/h 36.6% 0.0 mm
18:44 29 °C 12.4 °C 1008.7 hPa SE 15.6 km/h 29.6 km/h 36% 0.0 mm
18:49 28.8 °C 12.3 °C 1008.7 hPa SE 15.9 km/h 29 km/h 36.2% 0.0 mm
18:54 28.8 °C 12.5 °C 1008.7 hPa SE 16.4 km/h 24.1 km/h 36.7% 0.0 mm
18:59 28.8 °C 12.5 °C 1008.7 hPa ESE 15.5 km/h 25.9 km/h 36.6% 0.0 mm
19:04 28.8 °C 12.6 °C 1008.8 hPa ESE 14 km/h 25.7 km/h 36.9% 0.0 mm
19:09 28.6 °C 12.5 °C 1008.8 hPa ESE 14.3 km/h 27.4 km/h 37% 0.0 mm
19:14 28.3 °C 12.3 °C 1008.8 hPa ESE 14.8 km/h 27.8 km/h 37.1% 0.0 mm
19:19 28.3 °C 12.3 °C 1008.9 hPa ESE 15.2 km/h 25.7 km/h 37.1% 0.0 mm
19:24 28.3 °C 12.3 °C 1008.9 hPa ESE 16.1 km/h 29.1 km/h 37.2% 0.0 mm
19:29 28.2 °C 12.4 °C 1008.9 hPa ESE 16.5 km/h 29.6 km/h 37.8% 0.0 mm
19:34 28.2 °C 12.5 °C 1008.9 hPa ESE 17.2 km/h 29 km/h 37.9% 0.0 mm
19:39 28.3 °C 12.5 °C 1008.9 hPa ESE 16.1 km/h 24.1 km/h 37.8% 0.0 mm
19:44 28.3 °C 12.6 °C 1008.9 hPa ESE 13.7 km/h 24.1 km/h 38% 0.0 mm
19:49 28.2 °C 12.6 °C 1009.0 hPa ESE 14 km/h 24.5 km/h 38% 0.0 mm
19:54 28.2 °C 12.6 °C 1009.0 hPa ESE 14.8 km/h 24.1 km/h 38% 0.0 mm
19:59 28.3 °C 12.6 °C 1009.0 hPa ESE 13.7 km/h 24.1 km/h 38% 0.0 mm
20:04 28.3 °C 12.6 °C 1009.2 hPa ESE 11.9 km/h 19 km/h 37.9% 0.0 mm
20:09 28.3 °C 12.6 °C 1009.2 hPa ESE 11.3 km/h 19.3 km/h 38% 0.0 mm
20:14 28.2 °C 12.6 °C 1009.2 hPa ESE 10 km/h 16.7 km/h 38% 0.0 mm
20:19 28.1 °C 12.4 °C 1009.3 hPa ESE 10.1 km/h 20.9 km/h 38% 0.0 mm
20:24 27.8 °C 12.3 °C 1009.3 hPa ESE 10.3 km/h 20.9 km/h 38.1% 0.0 mm
20:29 27.7 °C 12.3 °C 1009.3 hPa ESE 10.8 km/h 19.3 km/h 38.6% 0.0 mm
20:34 27.6 °C 12.4 °C 1009.4 hPa ESE 11.9 km/h 19.3 km/h 39% 0.0 mm
20:39 27.4 °C 12.4 °C 1009.4 hPa ESE 11.4 km/h 16.7 km/h 39.4% 0.0 mm
20:44 27.4 °C 12.6 °C 1009.4 hPa ESE 10.3 km/h 14.8 km/h 40% 0.0 mm
20:49 27.3 °C 12.5 °C 1009.5 hPa ESE 10 km/h 14.8 km/h 40% 0.0 mm
20:54 27.3 °C 12.6 °C 1009.5 hPa ESE 9.5 km/h 14.8 km/h 40.2% 0.0 mm
20:59 27.2 °C 12.8 °C 1009.5 hPa ESE 9.7 km/h 18.5 km/h 41% 0.0 mm
21:04 27.1 °C 12.7 °C 1009.7 hPa ESE 10 km/h 19.3 km/h 41% 0.0 mm
21:09 27 °C 12.7 °C 1009.7 hPa ESE 10 km/h 16.7 km/h 41.3% 0.0 mm
21:14 26.8 °C 12.9 °C 1009.7 hPa ESE 10 km/h 16.1 km/h 42% 0.0 mm
21:19 26.7 °C 12.8 °C 1009.7 hPa ESE 9.5 km/h 14.5 km/h 42% 0.0 mm
21:24 26.7 °C 13 °C 1009.7 hPa SE 8.7 km/h 12.9 km/h 42.9% 0.0 mm
21:29 26.7 °C 13 °C 1009.7 hPa ESE 7.8 km/h 11.9 km/h 43% 0.0 mm
21:34 26.6 °C 13 °C 1009.8 hPa ESE 5.8 km/h 11.9 km/h 43% 0.0 mm
21:39 26.3 °C 13 °C 1009.8 hPa ESE 6.7 km/h 13 km/h 43.7% 0.0 mm
21:44 26.2 °C 13 °C 1009.8 hPa ESE 8.4 km/h 12.9 km/h 44% 0.0 mm
21:49 26.1 °C 12.9 °C 1010.0 hPa SE 7.7 km/h 11.3 km/h 44.2% 0.0 mm
21:54 26.1 °C 13.2 °C 1010.0 hPa SE 6.5 km/h 11.1 km/h 44.9% 0.0 mm
21:59 25.9 °C 13 °C 1010.0 hPa SE 6.9 km/h 12.2 km/h 45% 0.0 mm
22:04 25.8 °C 13.1 °C 1010.3 hPa SSE 7.6 km/h 13 km/h 45.5% 0.0 mm
22:09 25.8 °C 13.3 °C 1010.3 hPa SSE 6.7 km/h 9.7 km/h 46% 0.0 mm
22:14 25.8 °C 13.2 °C 1010.3 hPa SSE 5 km/h 8 km/h 45.8% 0.0 mm
22:19 25.8 °C 13.3 °C 1010.5 hPa SE 4.4 km/h 7.4 km/h 46% 0.0 mm
22:24 25.8 °C 13 °C 1010.5 hPa Sur 3.2 km/h 9.3 km/h 45.2% 0.0 mm
22:29 25.8 °C 12.3 °C 1010.5 hPa Oeste 3.2 km/h 9.7 km/h 43.1% 0.0 mm
22:34 26 °C 12.4 °C 1010.6 hPa SO 3.2 km/h 8 km/h 42.9% 0.0 mm
22:39 26.1 °C 12.4 °C 1010.6 hPa SO 3.4 km/h 11.1 km/h 42.6% 0.0 mm
22:44 26 °C 12.1 °C 1010.6 hPa Oeste 3.9 km/h 11.3 km/h 42% 0.0 mm
22:49 25.9 °C 12 °C 1010.9 hPa Oeste 4.9 km/h 11.3 km/h 42% 0.0 mm
22:54 25.7 °C 11.9 °C 1010.9 hPa Oeste 6.9 km/h 13 km/h 42.3% 0.0 mm
22:59 25.5 °C 12 °C 1010.9 hPa ONO 6.8 km/h 12.9 km/h 43% 0.0 mm
23:04 25.3 °C 12 °C 1011.1 hPa Oeste 6.5 km/h 11.3 km/h 43.4% 0.0 mm
23:09 25.2 °C 12 °C 1011.1 hPa SO 6.6 km/h 14 km/h 44% 0.0 mm
23:14 25.1 °C 12 °C 1011.1 hPa SO 6.9 km/h 16.4 km/h 44% 0.0 mm
23:19 25 °C 11.9 °C 1011.2 hPa SO 7.1 km/h 16.1 km/h 44% 0.0 mm
23:24 24.9 °C 11.9 °C 1011.2 hPa SO 7.6 km/h 14.5 km/h 44% 0.0 mm
23:29 24.9 °C 11.8 °C 1011.2 hPa SSO 7.6 km/h 14.5 km/h 44% 0.0 mm
23:34 24.9 °C 11.8 °C 1011.3 hPa SSO 7.6 km/h 14.8 km/h 44% 0.0 mm
23:39 24.8 °C 11.8 °C 1011.3 hPa SSO 8.4 km/h 19 km/h 44.2% 0.0 mm
23:44 24.8 °C 12 °C 1011.3 hPa SO 10 km/h 19.3 km/h 45% 0.0 mm
23:49 24.7 °C 11.9 °C 1011.6 hPa SSO 9.4 km/h 14.8 km/h 45% 0.0 mm
23:54 24.6 °C 12 °C 1011.6 hPa SSO 8.4 km/h 15.6 km/h 45.3% 0.0 mm
23:59 24.4 °C 12.1 °C 1011.6 hPa SSO 8.1 km/h 16.1 km/h 46% 0.0 mm
Murcia-Puente Tocinos, España
Compliments of Weather Underground - 3 mb

La estación de MeteoMurcia.com, publica sus datos en los siguientes proyectos:

Weather Underground PWS IMURCIAP2 Meteoclimatic www.awekas.at

W3Counter
Web Analytics